Time;durP1;ratioP1;P1;durP2;ratioP2;P2;SDS_P1;SDS_P2;PMS_P1;PMS_P2;Temp;Humidity;BMP_temperature;BMP_pressure;BME280_temperature;BME280_humidity;BME280_pressure;Samples;Min_cycle;Max_cycle;Signal;HPM_P1;HPM_P2
2023/03/04 00:02:00;;;;;;;4.45;2.75;;;;;;;4.99;100.00;102178.69;5083782;28;20036;-78
2023/03/04 00:04:27;;;;;;;5.65;2.75;;;;;;;5.01;100.00;102175.13;5085875;28;20044;-78
2023/03/04 00:06:52;;;;;;;6.32;2.85;;;;;;;5.02;100.00;102170.72;5082717;28;20059;-78
2023/03/04 00:09:18;;;;;;;6.82;3.30;;;;;;;5.01;100.00;102172.50;5086601;28;20059;-78
2023/03/04 00:11:44;;;;;;;5.47;2.72;;;;;;;4.97;100.00;102169.13;5083862;28;20036;-78
2023/03/04 00:14:10;;;;;;;4.63;2.97;;;;;;;4.98;100.00;102172.63;5083419;28;20036;-78
2023/03/04 00:16:36;;;;;;;4.70;3.15;;;;;;;5.01;100.00;102177.75;5078445;28;20032;-78
2023/03/04 00:19:02;;;;;;;5.07;3.30;;;;;;;5.02;100.00;102175.94;5072132;28;20032;-78
2023/03/04 00:21:27;;;;;;;7.00;3.63;;;;;;;5.04;100.00;102171.50;5089438;28;20059;-78
2023/03/04 00:23:53;;;;;;;5.75;3.33;;;;;;;5.04;100.00;102177.59;5087042;28;20400;-78
2023/03/04 00:26:19;;;;;;;5.60;3.40;;;;;;;5.03;100.00;102188.16;5079112;28;20369;-78
2023/03/04 00:28:45;;;;;;;7.10;4.47;;;;;;;5.06;100.00;102190.66;5088444;28;20040;-78
2023/03/04 00:31:11;;;;;;;5.93;4.07;;;;;;;5.07;100.00;102187.97;5052998;28;20047;-78
2023/03/04 00:33:37;;;;;;;5.63;3.90;;;;;;;5.11;100.00;102187.81;5066892;28;20025;-78
2023/03/04 00:36:03;;;;;;;8.95;3.45;;;;;;;5.08;100.00;102187.03;5082337;28;20036;-78
2023/03/04 00:38:29;;;;;;;6.72;3.90;;;;;;;5.05;100.00;102186.31;5069251;28;20039;-78
2023/03/04 00:40:55;;;;;;;9.52;5.47;;;;;;;4.97;100.00;102190.09;5072293;28;20073;-78
2023/03/04 00:43:21;;;;;;;7.13;3.88;;;;;;;4.94;100.00;102182.38;5085548;28;20029;-78
2023/03/04 00:45:47;;;;;;;6.00;3.40;;;;;;;4.89;100.00;102188.75;5082812;28;20031;-78
2023/03/04 00:48:16;;;;;;;5.28;3.83;;;;;;;4.80;100.00;102184.72;5078831;28;20036;-78
2023/03/04 00:50:43;;;;;;;6.15;4.05;;;;;;;4.79;100.00;102188.25;5084211;28;20039;-78
2023/03/04 00:53:09;;;;;;;5.28;3.42;;;;;;;4.76;100.00;102180.53;5073719;28;20036;-78
2023/03/04 00:55:35;;;;;;;10.18;4.75;;;;;;;4.71;100.00;102183.34;5082414;28;20476;-78
2023/03/04 00:58:01;;;;;;;21.90;8.48;;;;;;;4.66;100.00;102186.16;5083116;28;20036;-79
2023/03/04 01:00:27;;;;;;;27.55;9.82;;;;;;;4.61;100.00;102184.59;5082375;28;20027;-78
2023/03/04 01:02:53;;;;;;;17.73;8.27;;;;;;;4.55;100.00;102177.88;5084886;28;20059;-79
2023/03/04 01:05:19;;;;;;;21.05;8.43;;;;;;;4.58;100.00;102181.22;5087393;28;20749;-78
2023/03/04 01:07:45;;;;;;;8.80;4.05;;;;;;;4.62;100.00;102186.34;5084723;28;20040;-78
2023/03/04 01:10:13;;;;;;;5.55;3.35;;;;;;;4.67;100.00;102187.84;5082204;28;20031;-78
2023/03/04 01:12:41;;;;;;;8.68;3.42;;;;;;;4.69;100.00;102182.53;5071999;28;20043;-79
2023/03/04 01:15:09;;;;;;;5.38;3.35;;;;;;;4.74;100.00;102185.81;5075735;28;20062;-79
2023/03/04 01:17:35;;;;;;;6.13;3.58;;;;;;;4.71;100.00;102181.53;5048046;28;20037;-79
2023/03/04 01:20:03;;;;;;;4.82;2.60;;;;;;;4.65;100.00;102184.41;5075256;28;20032;-78
2023/03/04 01:22:29;;;;;;;4.68;2.90;;;;;;;4.58;100.00;102188.22;5069682;28;20032;-79
2023/03/04 01:24:55;;;;;;;4.53;3.13;;;;;;;4.57;100.00;102183.91;5080966;28;20506;-78
2023/03/04 01:27:20;;;;;;;5.53;2.47;;;;;;;4.59;100.00;102190.78;5084362;28;20028;-78
2023/03/04 01:29:46;;;;;;;7.82;3.35;;;;;;;4.59;100.00;102185.53;5082097;28;20028;-78
2023/03/04 01:32:12;;;;;;;8.15;3.22;;;;;;;4.61;100.00;102195.09;5077792;28;20021;-78
2023/03/04 01:34:38;;;;;;;5.90;3.67;;;;;;;4.61;100.00;102187.22;5062950;28;20102;-79
2023/03/04 01:37:04;;;;;;;5.72;3.28;;;;;;;4.62;100.00;102195.03;5077607;28;20109;-78
2023/03/04 01:39:29;;;;;;;4.20;2.70;;;;;;;4.56;100.00;102196.13;5070723;28;20080;-78
2023/03/04 01:41:55;;;;;;;5.22;2.30;;;;;;;4.62;100.00;102195.03;5086166;28;20043;-78
2023/03/04 01:44:21;;;;;;;5.75;2.63;;;;;;;4.67;100.00;102198.31;5080618;28;20036;-78
2023/03/04 01:46:51;;;;;;;5.43;2.47;;;;;;;4.68;100.00;102194.78;5050203;28;20024;-78
2023/03/04 01:49:17;;;;;;;2.50;2.13;;;;;;;4.67;100.00;102190.47;5067649;28;20036;-78
2023/03/04 01:51:48;;;;;;;6.57;3.72;;;;;;;4.67;100.00;102182.59;5062106;28;20122;-78
2023/03/04 01:54:14;;;;;;;6.05;3.10;;;;;;;4.64;100.00;102174.88;5070987;28;20036;-78
2023/03/04 01:56:40;;;;;;;3.90;3.20;;;;;;;4.66;100.00;102182.66;5062041;28;20036;-78
2023/03/04 01:59:18;;;;;;;6.03;4.00;;;;;;;4.70;100.00;102184.22;5067718;28;20063;-79
2023/03/04 02:01:47;;;;;;;11.13;3.58;;;;;;;4.75;100.00;102186.66;5082084;28;20028;-78
2023/03/04 02:04:13;;;;;;;5.20;3.33;;;;;;;4.78;100.00;102181.31;5070198;28;20476;-78
2023/03/04 02:06:40;;;;;;;5.15;3.47;;;;;;;4.80;100.00;102172.47;5082434;28;20089;-78
2023/03/04 02:09:07;;;;;;;5.60;3.53;;;;;;;4.82;100.00;102178.50;5077273;28;20034;-78
2023/03/04 02:11:35;;;;;;;9.05;3.10;;;;;;;4.88;100.00;102180.00;5066868;28;20060;-78
2023/03/04 02:14:01;;;;;;;9.60;3.30;;;;;;;4.88;100.00;102181.78;5083807;28;20047;-79
2023/03/04 02:16:27;;;;;;;5.75;4.05;;;;;;;4.88;100.00;102179.16;5069534;28;20028;-78
2023/03/04 02:18:54;;;;;;;4.28;3.78;;;;;;;4.87;100.00;102183.56;5087352;28;20036;-78
2023/03/04 02:21:25;;;;;;;5.97;4.90;;;;;;;4.84;100.00;102181.91;5062965;28;20127;-79
2023/03/04 02:24:09;;;;;;;5.85;3.70;;;;;;;4.91;100.00;102184.25;5087061;28;20070;-78
2023/03/04 02:26:35;;;;;;;5.63;4.03;;;;;;;4.88;100.00;102182.63;5080817;28;20028;-78
2023/03/04 02:29:02;;;;;;;4.68;3.33;;;;;;;4.87;100.00;102178.31;5081034;28;20048;-78
2023/03/04 02:31:33;;;;;;;3.40;2.97;;;;;;;4.93;100.00;102179.81;5084472;28;20028;-78
2023/03/04 02:34:05;;;;;;;4.88;3.83;;;;;;;4.97;100.00;102171.75;5053634;28;20441;-78
2023/03/04 02:36:33;;;;;;;7.07;3.60;;;;;;;5.02;100.00;102175.94;5058817;28;20373;-79
2023/03/04 02:39:27;;;;;;;6.32;3.42;;;;;;;5.06;100.00;102174.91;5046713;28;20093;-79
2023/03/04 02:41:54;;;;;;;4.20;3.00;;;;;;;5.06;100.00;102167.06;5077191;28;20066;-78
2023/03/04 02:44:25;;;;;;;5.03;3.15;;;;;;;5.07;100.00;102164.38;5066771;28;20151;-78
2023/03/04 02:46:52;;;;;;;7.75;3.90;;;;;;;5.05;100.00;102166.19;5073883;28;20023;-78
2023/03/04 02:49:19;;;;;;;5.47;3.20;;;;;;;5.01;100.00;102162.00;5084156;28;20031;-78
2023/03/04 02:51:44;;;;;;;7.22;4.20;;;;;;;4.93;100.00;102161.47;5088637;28;20043;-78
2023/03/04 02:54:19;;;;;;;6.63;3.25;;;;;;;4.89;100.00;102163.38;5088103;28;20040;-78
2023/03/04 02:56:50;;;;;;;5.68;3.25;;;;;;;4.83;100.00;102164.47;5064130;28;20137;-78
2023/03/04 02:59:18;;;;;;;7.72;3.55;;;;;;;4.88;100.00;102174.78;5047887;28;20373;-79
2023/03/04 03:01:44;;;;;;;4.30;2.95;;;;;;;4.89;100.00;102171.22;5076173;28;20112;-78
2023/03/04 03:04:10;;;;;;;4.07;3.25;;;;;;;4.90;100.00;102167.72;5084524;28;20040;-78
2023/03/04 03:06:36;;;;;;;4.72;2.80;;;;;;;4.94;100.00;102164.03;5071491;28;20036;-79
2023/03/04 03:09:02;;;;;;;3.38;2.80;;;;;;;4.94;100.00;102164.03;5080649;28;20103;-78
2023/03/04 03:11:28;;;;;;;5.07;3.15;;;;;;;4.92;100.00;102163.22;5082790;28;20395;-78
2023/03/04 03:13:55;;;;;;;4.55;2.90;;;;;;;4.82;100.00;102154.06;5087557;28;20040;-78
2023/03/04 03:16:21;;;;;;;4.43;2.50;;;;;;;4.81;100.00;102153.22;5085507;28;20083;-78
2023/03/04 03:18:49;;;;;;;4.82;3.10;;;;;;;4.85;100.00;102148.69;5019920;28;20031;-78
2023/03/04 03:21:14;;;;;;;4.47;3.20;;;;;;;4.89;100.00;102150.25;5085336;28;20032;-78
2023/03/04 03:23:42;;;;;;;4.20;3.05;;;;;;;4.92;100.00;102149.31;5090384;28;20047;-78
2023/03/04 03:26:08;;;;;;;5.47;3.00;;;;;;;4.97;100.00;102148.19;5090024;28;20028;-78
2023/03/04 03:28:34;;;;;;;3.55;3.17;;;;;;;5.03;100.00;102140.97;5085601;28;20028;-78
2023/03/04 03:31:00;;;;;;;3.50;2.90;;;;;;;5.02;100.00;102139.25;5087949;28;20032;-78
2023/03/04 03:33:27;;;;;;;4.50;2.58;;;;;;;4.99;100.00;102131.53;5084195;28;20043;-78
2023/03/04 03:35:53;;;;;;;4.28;2.83;;;;;;;4.94;100.00;102135.22;5087566;28;20061;-78
2023/03/04 03:38:19;;;;;;;6.00;3.25;;;;;;;4.94;100.00;102129.97;5068140;28;20054;-78
2023/03/04 03:40:44;;;;;;;4.85;3.60;;;;;;;4.93;100.00;102130.91;5088548;28;20037;-78
2023/03/04 03:43:10;;;;;;;6.80;3.53;;;;;;;4.85;100.00;102125.13;5083441;28;20118;-78
2023/03/04 03:45:36;;;;;;;3.80;3.33;;;;;;;4.76;100.00;102134.19;5085733;28;20169;-78
2023/03/04 03:48:02;;;;;;;4.50;3.10;;;;;;;4.71;100.00;102130.94;5083997;28;20060;-79
2023/03/04 03:50:29;;;;;;;9.07;3.35;;;;;;;4.64;100.00;102135.56;5101799;27;20032;-78
2023/03/04 03:52:54;;;;;;;5.53;3.25;;;;;;;4.63;100.00;102133.88;5086837;28;20063;-78
2023/03/04 03:55:21;;;;;;;4.82;3.35;;;;;;;4.62;100.00;102145.25;5086184;28;20109;-78
2023/03/04 03:57:46;;;;;;;6.72;3.58;;;;;;;4.60;100.00;102147.09;5057155;28;20032;-78
2023/03/04 04:00:13;;;;;;;8.63;3.55;;;;;;;4.53;100.00;102143.88;5082423;28;20584;-78
2023/03/04 04:02:39;;;;;;;13.73;3.55;;;;;;;4.47;100.00;102147.59;5090546;28;20090;-78
2023/03/04 04:05:07;;;;;;;5.15;3.08;;;;;;;4.49;100.00;102151.91;5081975;28;20101;-78
2023/03/04 04:07:33;;;;;;;7.60;4.10;;;;;;;4.45;100.00;102141.56;5083974;28;20056;-78
2023/03/04 04:09:58;;;;;;;6.57;2.85;;;;;;;4.44;100.00;102144.25;5083309;28;20114;-78
2023/03/04 04:12:24;;;;;;;4.78;3.13;;;;;;;4.41;100.00;102141.75;5081734;28;20028;-79
2023/03/04 04:14:50;;;;;;;9.93;3.03;;;;;;;4.34;100.00;102142.00;5079315;28;20036;-78
2023/03/04 04:17:16;;;;;;;5.00;2.72;;;;;;;4.34;100.00;102143.75;5087383;28;20032;-78
2023/03/04 04:19:41;;;;;;;5.45;3.13;;;;;;;4.30;100.00;102140.41;5088890;28;20089;-78
2023/03/04 04:22:13;;;;;;;3.70;3.13;;;;;;;4.34;100.00;102149.00;5062871;28;20032;-78
2023/03/04 04:24:39;;;;;;;7.03;3.35;;;;;;;4.33;100.00;102147.31;5078803;28;20476;-78
2023/03/04 04:27:05;;;;;;;6.65;3.42;;;;;;;4.32;100.00;102145.59;5086874;28;20039;-78
2023/03/04 04:29:31;;;;;;;7.75;3.17;;;;;;;4.32;100.00;102146.44;5086219;28;20097;-79
2023/03/04 04:31:57;;;;;;;6.20;2.65;;;;;;;4.28;100.00;102134.41;5070951;28;20031;-78
2023/03/04 04:34:23;;;;;;;5.38;3.15;;;;;;;4.25;100.00;102141.53;5087228;28;20032;-78
2023/03/04 04:36:49;;;;;;;3.67;2.75;;;;;;;4.25;100.00;102138.91;5085034;28;20032;-78
2023/03/04 04:39:15;;;;;;;4.00;2.50;;;;;;;4.25;100.00;102137.16;5081477;28;20485;-78
2023/03/04 04:41:42;;;;;;;7.38;2.83;;;;;;;4.26;100.00;102140.59;5084427;28;20035;-79
2023/03/04 04:44:10;;;;;;;6.25;2.53;;;;;;;4.27;100.00;102140.53;5081769;28;20372;-78
2023/03/04 04:46:36;;;;;;;5.97;2.95;;;;;;;4.28;100.00;102139.63;5084171;28;20560;-78
2023/03/04 04:49:03;;;;;;;7.43;2.17;;;;;;;4.24;100.00;102137.19;5084713;28;20032;-78
2023/03/04 04:51:29;;;;;;;5.53;2.63;;;;;;;4.15;100.00;102133.16;5070507;28;20107;-78
2023/03/04 04:53:55;;;;;;;5.65;2.97;;;;;;;4.10;100.00;102133.34;5086608;28;20046;-78
2023/03/04 04:56:25;;;;;;;5.20;2.70;;;;;;;4.11;100.00;102134.22;5078217;28;20028;-78
2023/03/04 04:58:58;;;;;;;6.05;2.80;;;;;;;4.08;100.00;102137.78;5048547;28;20492;-78
2023/03/04 05:01:25;;;;;;;4.90;2.40;;;;;;;4.06;100.00;102130.00;5083903;28;20123;-78
2023/03/04 05:03:52;;;;;;;2.28;2.03;;;;;;;4.00;100.00;102138.06;5067711;28;20044;-78
2023/03/04 05:06:20;;;;;;;6.20;2.78;;;;;;;4.00;100.00;102134.63;5084242;28;20036;-78
2023/03/04 05:08:46;;;;;;;6.03;2.80;;;;;;;4.02;100.00;102141.50;5068126;28;20100;-78
2023/03/04 05:11:12;;;;;;;6.45;2.72;;;;;;;4.01;100.00;102134.56;5048450;28;20373;-78
2023/03/04 05:13:38;;;;;;;4.22;2.42;;;;;;;4.00;100.00;102137.25;5082845;28;20051;-78
2023/03/04 05:16:04;;;;;;;6.25;2.65;;;;;;;3.99;100.00;102143.38;5070092;28;20439;-78
2023/03/04 05:18:30;;;;;;;3.40;2.47;;;;;;;3.95;100.00;102146.09;5085580;28;20043;-78
2023/03/04 05:20:58;;;;;;;9.70;2.60;;;;;;;3.97;100.00;102140.81;5075239;28;20114;-78
2023/03/04 05:23:26;;;;;;;3.92;2.30;;;;;;;3.98;100.00;102139.94;5078078;28;21509;-78
2023/03/04 05:25:52;;;;;;;3.65;2.45;;;;;;;3.97;100.00;102146.06;5097472;28;20028;-79
2023/03/04 05:28:18;;;;;;;3.92;2.63;;;;;;;3.99;100.00;102159.06;5080744;28;20040;-78
2023/03/04 05:30:45;;;;;;;3.90;2.38;;;;;;;4.02;100.00;102151.97;5082303;28;20024;-78
2023/03/04 05:33:13;;;;;;;7.53;2.88;;;;;;;4.05;100.00;102162.31;5078859;28;20548;-78
2023/03/04 05:35:41;;;;;;;5.25;2.65;;;;;;;4.09;100.00;102163.88;5084140;28;20081;-78
2023/03/04 05:38:09;;;;;;;6.65;2.53;;;;;;;4.16;100.00;102161.03;5082205;28;20062;-79
2023/03/04 05:40:35;;;;;;;7.78;2.70;;;;;;;4.24;100.00;102166.81;5084959;28;20525;-78
2023/03/04 05:43:02;;;;;;;3.75;2.95;;;;;;;4.23;100.00;102170.38;5086029;28;20131;-78
2023/03/04 05:45:28;;;;;;;3.70;3.00;;;;;;;4.21;100.00;102167.81;5077804;28;20496;-78
2023/03/04 05:47:54;;;;;;;5.20;2.65;;;;;;;4.16;100.00;102166.25;5080726;28;20039;-78
2023/03/04 05:50:21;;;;;;;8.70;2.53;;;;;;;4.14;100.00;102166.31;5078395;28;20413;-79
2023/03/04 05:52:48;;;;;;;4.78;2.80;;;;;;;4.16;100.00;102171.50;5065055;28;20485;-78
2023/03/04 05:55:15;;;;;;;4.30;2.92;;;;;;;4.17;100.00;102168.81;5063924;28;20036;-79
2023/03/04 05:57:41;;;;;;;5.80;3.15;;;;;;;4.18;100.00;102165.31;5085167;28;20020;-78
2023/03/04 06:00:11;;;;;;;6.88;2.65;;;;;;;4.16;100.00;102163.66;5084472;28;20054;-78
2023/03/04 06:02:41;;;;;;;6.57;3.47;;;;;;;4.19;100.00;102166.16;5084943;28;20056;-78
2023/03/04 06:05:09;;;;;;;12.20;3.17;;;;;;;4.16;100.00;102167.13;5078550;28;20507;-78
2023/03/04 06:07:35;;;;;;;8.40;3.20;;;;;;;4.17;100.00;102170.59;5083492;28;20031;-78
2023/03/04 06:10:01;;;;;;;3.78;2.42;;;;;;;4.23;100.00;102167.75;5082034;28;20110;-78
2023/03/04 06:12:28;;;;;;;4.03;2.75;;;;;;;4.24;100.00;102164.22;5089857;28;20040;-78
2023/03/04 06:14:54;;;;;;;4.28;2.80;;;;;;;4.26;100.00;102157.16;5067776;28;20048;-78
2023/03/04 06:17:20;;;;;;;4.72;3.10;;;;;;;4.27;100.00;102158.03;5091319;28;20093;-78
2023/03/04 06:19:46;;;;;;;5.50;3.35;;;;;;;4.25;100.00;102159.84;5049652;28;20122;-78
2023/03/04 06:22:11;;;;;;;3.92;2.58;;;;;;;4.21;100.00;102153.88;5086264;28;20059;-78
2023/03/04 06:24:37;;;;;;;7.25;2.78;;;;;;;4.20;100.00;102154.78;5086533;28;20043;-78
2023/03/04 06:27:03;;;;;;;4.93;2.60;;;;;;;4.18;100.00;102154.84;5069953;28;20151;-78
2023/03/04 06:29:29;;;;;;;3.38;2.47;;;;;;;4.11;100.00;102153.38;5057062;28;20028;-78
2023/03/04 06:31:55;;;;;;;3.60;2.50;;;;;;;4.07;100.00;102149.16;5085657;28;20118;-78
2023/03/04 06:34:21;;;;;;;2.88;2.40;;;;;;;4.08;100.00;102151.72;5080607;28;20043;-78
2023/03/04 06:36:47;;;;;;;4.45;2.45;;;;;;;4.14;100.00;102158.47;5069727;28;20047;-78
2023/03/04 06:39:13;;;;;;;4.03;2.58;;;;;;;4.16;100.00;102158.41;5061351;28;20567;-78
2023/03/04 06:41:38;;;;;;;4.43;2.10;;;;;;;4.14;100.00;102153.25;5086203;28;20480;-78
2023/03/04 06:44:04;;;;;;;3.67;2.78;;;;;;;4.16;100.00;102154.03;5068971;28;20062;-78
2023/03/04 06:46:32;;;;;;;4.82;2.30;;;;;;;4.22;100.00;102155.59;5089177;28;20421;-78
2023/03/04 06:48:58;;;;;;;3.40;2.50;;;;;;;4.25;100.00;102152.00;5085289;28;20119;-78
2023/03/04 06:51:24;;;;;;;9.50;2.85;;;;;;;4.27;100.00;102156.25;5080056;28;20103;-78
2023/03/04 06:53:50;;;;;;;5.25;3.03;;;;;;;4.24;100.00;102155.53;5078260;28;20043;-78
2023/03/04 06:56:16;;;;;;;6.00;2.60;;;;;;;4.20;100.00;102146.94;5083789;28;20037;-78
2023/03/04 06:58:43;;;;;;;4.65;2.45;;;;;;;4.14;100.00;102147.19;5089392;28;20035;-78
2023/03/04 07:01:19;;;;;;;4.30;2.65;;;;;;;4.17;100.00;102157.53;5080625;28;20370;-78
2023/03/04 07:03:46;;;;;;;4.05;2.80;;;;;;;4.13;100.00;102151.53;5047003;28;20044;-78
2023/03/04 07:06:13;;;;;;;4.20;2.35;;;;;;;4.14;100.00;102153.25;5089125;28;20029;-78
2023/03/04 07:08:40;;;;;;;7.15;2.67;;;;;;;4.07;100.00;102160.50;5069344;28;20123;-78
2023/03/04 07:11:07;;;;;;;5.85;2.40;;;;;;;4.03;100.00;102150.22;5087335;28;20028;-78
2023/03/04 07:13:36;;;;;;;7.10;2.72;;;;;;;4.01;100.00;102160.75;5080334;28;20039;-78
2023/03/04 07:16:07;;;;;;;6.75;3.05;;;;;;;4.03;100.00;102166.75;5065692;28;20059;-78
2023/03/04 07:18:33;;;;;;;4.40;2.17;;;;;;;4.00;100.00;102176.50;5083379;28;20492;-78
2023/03/04 07:20:59;;;;;;;4.25;2.65;;;;;;;3.92;100.00;102171.53;5063480;28;20072;-78
2023/03/04 07:23:25;;;;;;;5.95;2.88;;;;;;;3.92;100.00;102177.63;5072739;28;20090;-78
2023/03/04 07:25:51;;;;;;;4.80;2.83;;;;;;;3.96;100.00;102176.63;5080126;28;20020;-78
2023/03/04 07:28:16;;;;;;;8.50;2.72;;;;;;;3.95;100.00;102179.28;5063285;28;20489;-78
2023/03/04 07:30:43;;;;;;;6.40;2.78;;;;;;;3.94;100.00;102164.47;5087895;28;20145;-78
2023/03/04 07:33:09;;;;;;;4.07;2.47;;;;;;;3.91;100.00;102167.22;5065757;28;20037;-78
2023/03/04 07:35:35;;;;;;;4.38;2.55;;;;;;;3.86;100.00;102170.00;5087332;28;20028;-78
2023/03/04 07:38:01;;;;;;;4.63;2.30;;;;;;;3.83;100.00;102170.13;5083778;28;20160;-78
2023/03/04 07:40:27;;;;;;;7.43;3.00;;;;;;;3.84;100.00;102166.59;5067891;28;20380;-78
2023/03/04 07:42:54;;;;;;;3.95;2.50;;;;;;;3.85;100.00;102173.53;5097279;28;20029;-78
2023/03/04 07:45:21;;;;;;;5.18;2.50;;;;;;;3.83;100.00;102170.97;5067382;28;20052;-78
2023/03/04 07:47:47;;;;;;;4.47;2.47;;;;;;;3.83;100.00;102181.44;5080677;28;20034;-78
2023/03/04 07:50:14;;;;;;;6.13;2.45;;;;;;;3.88;100.00;102183.88;5089909;28;20031;-78
2023/03/04 07:52:42;;;;;;;4.22;2.50;;;;;;;3.91;100.00;102185.53;5085064;28;20518;-78
2023/03/04 07:55:10;;;;;;;4.07;2.95;;;;;;;3.96;100.00;102186.22;5064316;28;20193;-78
2023/03/04 07:57:40;;;;;;;2.92;2.28;;;;;;;4.03;100.00;102192.91;5087895;28;20024;-79
2023/03/04 08:00:06;;;;;;;7.65;2.67;;;;;;;4.11;100.00;102194.41;5082805;28;20031;-78
2023/03/04 08:02:38;;;;;;;5.85;3.92;;;;;;;4.14;100.00;102197.72;5077306;28;20057;-78
2023/03/04 08:05:04;;;;;;;6.05;3.40;;;;;;;4.12;100.00;102193.47;5084267;28;20072;-78
2023/03/04 08:07:30;;;;;;;8.40;3.60;;;;;;;4.14;100.00;102191.66;5064615;28;20369;-78
2023/03/04 08:09:56;;;;;;;6.90;3.20;;;;;;;4.19;100.00;102194.94;5085314;28;20093;-78
2023/03/04 08:12:23;;;;;;;7.70;3.40;;;;;;;4.22;100.00;102192.22;5085806;28;20081;-78
2023/03/04 08:14:50;;;;;;;5.15;2.83;;;;;;;4.25;100.00;102189.50;5077968;28;20392;-78
2023/03/04 08:17:16;;;;;;;4.35;3.08;;;;;;;4.18;100.00;102190.63;5087143;28;20032;-78
2023/03/04 08:19:42;;;;;;;8.63;3.22;;;;;;;4.12;100.00;102198.72;5088035;28;20040;-78
2023/03/04 08:22:07;;;;;;;7.22;3.22;;;;;;;4.12;100.00;102193.47;5083478;28;20388;-78
2023/03/04 08:24:34;;;;;;;5.82;2.58;;;;;;;4.05;100.00;102192.84;5082153;28;20447;-78
2023/03/04 08:26:59;;;;;;;12.20;2.75;;;;;;;4.01;100.00;102201.75;5077069;28;20090;-78
2023/03/04 08:29:26;;;;;;;4.82;2.00;;;;;;;4.03;100.00;102192.09;5083991;28;20039;-78
2023/03/04 08:31:54;;;;;;;9.38;2.58;;;;;;;4.03;100.00;102194.69;5086722;28;20369;-78
2023/03/04 08:34:23;;;;;;;3.35;2.17;;;;;;;4.09;100.00;102195.28;5079758;28;20032;-78
2023/03/04 08:36:48;;;;;;;5.80;2.60;;;;;;;4.05;100.00;102196.34;5083779;28;20213;-78
2023/03/04 08:39:17;;;;;;;5.72;2.60;;;;;;;4.10;100.00;102190.94;5065240;28;20837;-78
2023/03/04 08:41:43;;;;;;;3.85;2.30;;;;;;;4.12;100.00;102193.47;5066646;28;20316;-78
2023/03/04 08:44:11;;;;;;;5.00;2.72;;;;;;;4.14;100.00;102197.72;5061793;28;20076;-78
2023/03/04 08:46:38;;;;;;;10.23;3.28;;;;;;;4.12;100.00;102198.72;5070495;28;20035;-78
2023/03/04 08:49:04;;;;;;;4.30;2.20;;;;;;;4.08;100.00;102193.59;5068257;28;20058;-78
2023/03/04 08:51:31;;;;;;;5.95;2.88;;;;;;;4.01;100.00;102193.88;5072697;28;20043;-78
2023/03/04 08:53:57;;;;;;;9.02;3.50;;;;;;;3.87;100.00;102195.25;5080623;28;20484;-78
2023/03/04 08:56:23;;;;;;;6.38;3.20;;;;;;;3.90;100.00;102202.97;5062008;28;20024;-78
2023/03/04 08:58:48;;;;;;;5.20;3.35;;;;;;;3.97;100.00;102198.38;5078565;28;20086;-78
2023/03/04 09:01:14;;;;;;;5.68;3.33;;;;;;;4.00;100.00;102198.25;5079653;28;20032;-78
2023/03/04 09:03:42;;;;;;;8.23;3.05;;;;;;;4.07;100.00;102204.13;5063309;28;20506;-78
2023/03/04 09:06:10;;;;;;;5.22;2.80;;;;;;;4.07;100.00;102199.75;5078750;28;20060;-78
2023/03/04 09:08:36;;;;;;;9.18;2.75;;;;;;;4.07;100.00;102202.38;5062708;28;20096;-78
2023/03/04 09:11:02;;;;;;;5.25;2.92;;;;;;;4.09;100.00;102205.75;5085208;28;20031;-78
2023/03/04 09:13:30;;;;;;;5.20;3.28;;;;;;;4.14;100.00;102191.66;5061002;28;20544;-78
2023/03/04 09:15:55;;;;;;;6.40;3.40;;;;;;;4.20;100.00;102201.91;5077319;28;20044;-78
2023/03/04 09:18:23;;;;;;;5.35;3.25;;;;;;;4.19;100.00;102200.16;5085572;28;20127;-79
2023/03/04 09:20:49;;;;;;;7.00;3.42;;;;;;;4.18;100.00;102203.72;5080256;28;20384;-78
2023/03/04 09:23:16;;;;;;;5.13;2.85;;;;;;;4.11;100.00;102194.41;5084383;28;20112;-78
2023/03/04 09:25:43;;;;;;;6.00;2.67;;;;;;;4.11;100.00;102194.41;5084767;28;20031;-78
2023/03/04 09:28:10;;;;;;;5.90;3.20;;;;;;;4.14;100.00;102191.66;5083839;28;20496;-78
2023/03/04 09:30:36;;;;;;;5.10;2.13;;;;;;;4.12;100.00;102191.72;5067471;28;20046;-78
2023/03/04 09:33:02;;;;;;;14.15;2.78;;;;;;;4.08;100.00;102195.34;5081152;28;20473;-78
2023/03/04 09:35:31;;;;;;;8.43;2.28;;;;;;;4.09;100.00;102191.84;5076192;28;20147;-78
2023/03/04 09:37:57;;;;;;;8.10;2.97;;;;;;;4.12;100.00;102185.63;5085505;28;20063;-78
2023/03/04 09:40:29;;;;;;;6.68;2.83;;;;;;;4.15;100.00;102188.13;5081264;28;20024;-78
2023/03/04 09:43:02;;;;;;;6.43;2.65;;;;;;;4.18;100.00;102188.88;5081039;28;20480;-78
2023/03/04 09:45:40;;;;;;;5.40;2.50;;;;;;;4.23;100.00;102188.69;5086406;28;20031;-78
2023/03/04 09:48:10;;;;;;;5.20;2.10;;;;;;;4.24;100.00;102185.16;5085827;28;20059;-78
2023/03/04 09:50:43;;;;;;;8.52;2.55;;;;;;;4.26;100.00;102178.09;5063711;28;20033;-78
2023/03/04 09:53:15;;;;;;;4.50;2.33;;;;;;;4.32;100.00;102172.63;5086034;28;20036;-78
2023/03/04 09:55:45;;;;;;;3.75;2.65;;;;;;;4.37;100.00;102176.81;5051137;28;20047;-78
2023/03/04 09:58:22;;;;;;;4.45;2.38;;;;;;;4.41;100.00;102175.78;5071042;28;20032;-78
2023/03/04 10:01:11;;;;;;;6.43;2.50;;;;;;;4.40;100.00;102174.06;5082113;28;20036;-78
2023/03/04 10:03:50;;;;;;;3.30;2.20;;;;;;;4.42;100.00;102173.13;5086585;28;20097;-78
2023/03/04 10:06:18;;;;;;;17.95;2.75;;;;;;;4.45;100.00;102167.75;5075642;28;20036;-78
2023/03/04 10:09:10;;;;;;;6.15;2.80;;;;;;;4.46;100.00;102176.44;5076744;28;20097;-78
2023/03/04 10:11:44;;;;;;;4.68;2.47;;;;;;;4.47;100.00;102172.94;5086624;28;20036;-78
2023/03/04 10:14:22;;;;;;;7.28;2.83;;;;;;;4.48;100.00;102177.25;5081378;28;20028;-78
2023/03/04 10:16:50;;;;;;;5.15;2.75;;;;;;;4.47;100.00;102175.56;5083133;28;20036;-78
2023/03/04 10:19:57;;;;;;;7.95;3.22;;;;;;;4.50;100.00;102182.41;5069482;28;20032;-78
2023/03/04 10:22:44;;;;;;;6.05;2.58;;;;;;;4.41;100.00;102178.41;5081330;28;20040;-78
2023/03/04 10:25:16;;;;;;;5.25;2.40;;;;;;;4.45;100.00;102183.47;5068404;28;20063;-78
2023/03/04 10:27:49;;;;;;;5.00;2.45;;;;;;;4.45;100.00;102182.59;5065841;28;20436;-78
2023/03/04 10:30:40;;;;;;;5.10;2.88;;;;;;;4.50;100.00;102182.41;5084782;28;20020;-78
2023/03/04 10:33:12;;;;;;;5.72;2.28;;;;;;;4.44;100.00;102180.91;5070070;28;20258;-78
2023/03/04 10:35:41;;;;;;;8.27;2.53;;;;;;;4.42;100.00;102183.59;5063848;28;20438;-78
2023/03/04 10:38:08;;;;;;;4.95;2.70;;;;;;;4.49;100.00;102178.94;5081016;28;20028;-78
2023/03/04 10:40:41;;;;;;;5.68;2.65;;;;;;;4.55;100.00;102177.88;5081189;28;20061;-78
2023/03/04 10:43:15;;;;;;;5.50;2.72;;;;;;;4.57;100.00;102178.66;5099208;28;20031;-78
2023/03/04 10:45:41;;;;;;;5.60;2.53;;;;;;;4.47;100.00;102180.78;5065219;28;20059;-78
2023/03/04 10:48:18;;;;;;;6.15;3.10;;;;;;;4.51;100.00;102184.97;5082374;28;20063;-78
2023/03/04 10:50:43;;;;;;;3.78;2.92;;;;;;;4.52;100.00;102185.84;5081036;28;20034;-78
2023/03/04 10:53:27;;;;;;;7.20;2.67;;;;;;;4.61;100.00;102189.84;5073063;28;20032;-78
2023/03/04 10:55:53;;;;;;;8.27;3.10;;;;;;;4.54;100.00;102189.25;5084565;28;20040;-78
2023/03/04 10:58:19;;;;;;;7.72;3.28;;;;;;;4.56;100.00;102184.78;5080671;28;20034;-78
2023/03/04 11:01:00;;;;;;;5.75;2.67;;;;;;;4.59;100.00;102189.91;5083849;28;20742;-78
2023/03/04 11:03:26;;;;;;;3.80;2.50;;;;;;;4.56;100.00;102190.91;5066462;28;20075;-78
2023/03/04 11:06:04;;;;;;;8.52;2.65;;;;;;;4.57;100.00;102186.53;5063755;28;20134;-78
2023/03/04 11:08:30;;;;;;;6.55;2.67;;;;;;;4.63;100.00;102181.03;5080515;28;20036;-78
2023/03/04 11:10:55;;;;;;;4.93;2.67;;;;;;;4.68;100.00;102178.22;5082364;28;20055;-78
2023/03/04 11:13:24;;;;;;;5.93;2.78;;;;;;;4.71;100.00;102178.94;5054913;28;20032;-78
2023/03/04 11:15:51;;;;;;;4.90;2.35;;;;;;;4.70;100.00;102177.22;5072957;28;20059;-78
2023/03/04 11:18:23;;;;;;;8.63;3.58;;;;;;;4.77;100.00;102179.59;5086205;28;20028;-78
2023/03/04 11:20:50;;;;;;;4.97;2.60;;;;;;;4.81;100.00;102174.16;5078728;28;20037;-78
2023/03/04 11:23:24;;;;;;;7.70;3.00;;;;;;;4.88;100.00;102176.53;5070378;28;20034;-78
2023/03/04 11:26:13;;;;;;;9.15;3.35;;;;;;;5.00;100.00;102170.78;5083030;28;20918;-78
2023/03/04 11:28:55;;;;;;;2.63;2.00;;;;;;;5.05;100.00;102166.19;5088303;28;20061;-78